WetterOnline ( http://www.wetteronline.de )

Wetter aktuell Zwickau

Aktuelles Wetter: Chemnitz (420m)

6-stündlich | Neueste Meldungen
Ortszeit Temperatur Wetter
Mi, 17.10. 8:00 9.9° C fast wolkenlos
Mi, 17.10. 2:00 11.4° C leicht bewölkt
Di, 16.10. 20:00 13.1° C bedeckt
Di, 16.10. 14:00 17.4° C wolkig
Di, 16.10. 8:00 13.0° C bewölkt
Di, 16.10. 2:00 14.6° C bedeckt
Mo, 15.10. 20:00 17.2° C bewölkt
Mo, 15.10. 14:00 19.9° C wolkig
Ortszeit Temperatur Wetter
Mi, 17.10. 9:30 11.2° C leicht bewölkt
Mi, 17.10. 9:20 11.2° C leicht bewölkt
Mi, 17.10. 9:10 10.4° C leicht bewölkt
Mi, 17.10. 9:00 10.5° C leicht bewölkt
Mi, 17.10. 8:50 10.5° C leicht bewölkt
Mi, 17.10. 8:40 9.8° C leicht bewölkt
Mi, 17.10. 8:30 9.5° C fast wolkenlos
Mi, 17.10. 8:00 9.9° C fast wolkenlos
Mi, 17.10. 7:30 9.9° C wolkenlos
Mi, 17.10. 7:00 10.3° C wolkenlos
Mi, 17.10. 6:30 10.5° C fast wolkenlos
Ortszeit Relative Feuchte Sichtweite
Mi, 17.10. 8:00 82% 6 km
Mi, 17.10. 2:00 82% 8 km
Di, 16.10. 20:00 75% 10 km
Di, 16.10. 14:00 51% 20 km
Di, 16.10. 8:00 59% 22 km
Di, 16.10. 2:00 52% 23 km
Mo, 15.10. 20:00 41% 23 km
Mo, 15.10. 14:00 35% 35 km
Ortszeit Relative Feuchte Sichtweite
Mi, 17.10. 9:30 79% 6 km
Mi, 17.10. 9:20 79% -
Mi, 17.10. 9:10 82% -
Mi, 17.10. 9:00 79% 7 km
Mi, 17.10. 8:50 79% -
Mi, 17.10. 8:40 82% -
Mi, 17.10. 8:30 84% 6 km
Mi, 17.10. 8:00 82% 6 km
Mi, 17.10. 7:30 83% 6 km
Mi, 17.10. 7:00 81% 6 km
Mi, 17.10. 6:30 79% 7 km
Ortszeit Niederschlagsmenge Niederschlagsart
Mi, 17.10. 8:00 0.0 l/m2 in 12 Std. -
Mi, 17.10. 2:00 0.0 l/m2 in 6 Std. -
Di, 16.10. 20:00 0.1 l/m2 in 12 Std. Regen
Di, 16.10. 14:00 0.1 l/m2 in 6 Std. Regen
Di, 16.10. 8:00 0.0 l/m2 in 12 Std. -
Di, 16.10. 2:00 0.0 l/m2 in 6 Std. -
Mo, 15.10. 20:00 0.0 l/m2 in 12 Std. -
Mo, 15.10. 14:00 0.0 l/m2 in 6 Std. -
Ortszeit Niederschlagsmenge Niederschlagsart
Mi, 17.10. 9:30 0.0 l/m2 in 1 Std. -
Mi, 17.10. 9:20 keine Meldung -
Mi, 17.10. 9:10 keine Meldung -
Mi, 17.10. 9:00 0.0 l/m2 in 1 Std. -
Mi, 17.10. 8:50 keine Meldung -
Mi, 17.10. 8:40 keine Meldung -
Mi, 17.10. 8:30 0.0 l/m2 in 1 Std. -
Mi, 17.10. 8:00 0.0 l/m2 in 1 Std. -
Mi, 17.10. 7:30 0.0 l/m2 in 1 Std. -
Mi, 17.10. 7:00 0.0 l/m2 in 1 Std. -
Mi, 17.10. 6:30 0.0 l/m2 in 1 Std. -
Ortszeit Stärke Spitze Richtung
km/h Bft. km/h Grad Sektor
Mi, 17.10. 8:00 13 3 15 210° SW
Mi, 17.10. 2:00 7 2 11 180° S
Di, 16.10. 20:00 9 2 20 210° SW
Di, 16.10. 14:00 15 3 20 280° W
Di, 16.10. 8:00 7 2 18 140° SO
Di, 16.10. 2:00 4 1 18 140° SO
Mo, 15.10. 20:00 11 2 29 150° SO
Mo, 15.10. 14:00 13 3 30 140° SO
Ortszeit Stärke Spitze Richtung
km/h Bft. km/h Grad Sektor
Mi, 17.10. 9:30 9 2 15 200° S
Mi, 17.10. 9:20 9 2 - 200° S
Mi, 17.10. 9:10 11 2 - 200° S
Mi, 17.10. 9:00 13 3 15 200° S
Mi, 17.10. 8:50 13 3 - 200° S
Mi, 17.10. 8:40 13 3 - 200° S
Mi, 17.10. 8:30 11 2 14 220° SW
Mi, 17.10. 8:00 13 3 13 210° SW
Mi, 17.10. 7:30 9 2 11 220° SW
Mi, 17.10. 7:00 9 2 13 210° SW
Mi, 17.10. 6:30 11 2 13 190° S
Ortszeit Untergrenze Bedeckung Gattung
total tief tief mittel hoch
Mi, 17.10. 8:00 2700 m 1/8 1/8 - - -
Mi, 17.10. 2:00 3300 m 3/8 3/8 - - -
Di, 16.10. 20:00 3300 m 8/8 8/8 - - -
Di, 16.10. 14:00 3900 m 6/8 6/8 - - -
Di, 16.10. 8:00 2700 m 8/8 5/8 - - -
Di, 16.10. 2:00 3900 m 8/8 8/8 - - -
Mo, 15.10. 20:00 2700 m 8/8 7/8 - - -
Mo, 15.10. 14:00 5100 m 6/8 3/8 - - -
Ortszeit Bedeckungsgrad in Achtel und Wolkenuntergrenze
Mi, 17.10. 9:30 3(3000m)
Mi, 17.10. 9:20 3(3000m)
Mi, 17.10. 9:10 3(3000m)
Mi, 17.10. 9:00 3(2700m)
Mi, 17.10. 8:50 3(2700m)
Mi, 17.10. 8:40 4(2700m)
Mi, 17.10. 8:30 1(2700m)
Mi, 17.10. 8:00 1(2700m)
Mi, 17.10. 7:30 keine Wolken
Mi, 17.10. 7:00 keine Wolken
Mi, 17.10. 6:30 1(3000m)
Ortszeit Luftdruck NN (hPa) Tendenz (hPa in 3 Std.)
Mi, 17.10. 8:00 1020 + 0,2
Mi, 17.10. 2:00 1020 - 0,3
Di, 16.10. 20:00 1020 + 0,7
Di, 16.10. 14:00 1018 + 0,3
Di, 16.10. 8:00 1018 + 0,7
Di, 16.10. 2:00 1017 - 0,1
Mo, 15.10. 20:00 1016 + 0,3
Mo, 15.10. 14:00 1015 + 0,1
Ortszeit Luftdruck NN (hPa) Tendenz (hPa in 3 Std.)
Mi, 17.10. 9:30 1020 + 0,4
Mi, 17.10. 9:20 1020 keine Meldung
Mi, 17.10. 9:10 1020 keine Meldung
Mi, 17.10. 9:00 1020 + 0,3
Mi, 17.10. 8:50 1020 keine Meldung
Mi, 17.10. 8:40 1020 keine Meldung
Mi, 17.10. 8:30 1020 + 0,3
Mi, 17.10. 8:00 1020 + 0,2
Mi, 17.10. 7:30 1020 + 0,3
Mi, 17.10. 7:00 1020 0,0
Mi, 17.10. 6:30 1020 - 0,1
Ortszeit Schneehöhe (cm)
Mi, 17.10. 8:00 0
Mi, 17.10. 2:00 0
Di, 16.10. 20:00 0
Di, 16.10. 14:00 0
Di, 16.10. 8:00 0
Di, 16.10. 2:00 0
Mo, 15.10. 20:00 0
Mo, 15.10. 14:00 0
Ortszeit Schneehöhe (cm)
Mi, 17.10. 9:30 0
Mi, 17.10. 9:20 0
Mi, 17.10. 9:10 0
Mi, 17.10. 9:00 0
Mi, 17.10. 8:50 0
Mi, 17.10. 8:40 0
Mi, 17.10. 8:30 0
Mi, 17.10. 8:00 0
Mi, 17.10. 7:30 0
Mi, 17.10. 7:00 0
Mi, 17.10. 6:30 0
Link zu dieser Seite / Seite empfehlen

Das Wetter in ...